sensor_id;sensor_type;location;lat;lon;timestamp;P1;durP1;ratioP1;P2;durP2;ratioP2
31091;SDS011;67728;53.122;12.776;2023-12-20T00:00:24;653.78;;;272.80;;
31091;SDS011;67728;53.122;12.776;2023-12-20T00:01:55;657.63;;;285.00;;
31091;SDS011;67728;53.122;12.776;2023-12-20T00:03:26;651.78;;;260.08;;
31091;SDS011;67728;53.122;12.776;2023-12-20T00:04:58;649.63;;;260.73;;
31091;SDS011;67728;53.122;12.776;2023-12-20T00:06:30;650.70;;;267.77;;
31091;SDS011;67728;53.122;12.776;2023-12-20T00:08:02;650.70;;;272.23;;
31091;SDS011;67728;53.122;12.776;2023-12-20T00:09:32;649.67;;;261.15;;
31091;SDS011;67728;53.122;12.776;2023-12-20T00:11:04;651.13;;;257.23;;
31091;SDS011;67728;53.122;12.776;2023-12-20T00:12:35;645.97;;;248.38;;
31091;SDS011;67728;53.122;12.776;2023-12-20T00:14:06;643.42;;;245.15;;
31091;SDS011;67728;53.122;12.776;2023-12-20T00:15:37;645.08;;;251.63;;
31091;SDS011;67728;53.122;12.776;2023-12-20T00:17:09;652.00;;;263.52;;
31091;SDS011;67728;53.122;12.776;2023-12-20T00:18:39;649.67;;;265.40;;
31091;SDS011;67728;53.122;12.776;2023-12-20T00:20:11;651.05;;;267.27;;
31091;SDS011;67728;53.122;12.776;2023-12-20T00:21:43;661.78;;;269.52;;
31091;SDS011;67728;53.122;12.776;2023-12-20T00:23:15;649.90;;;264.90;;
31091;SDS011;67728;53.122;12.776;2023-12-20T00:24:46;656.60;;;283.38;;
31091;SDS011;67728;53.122;12.776;2023-12-20T00:26:17;657.85;;;276.10;;
31091;SDS011;67728;53.122;12.776;2023-12-20T00:27:49;652.72;;;275.55;;
31091;SDS011;67728;53.122;12.776;2023-12-20T00:29:19;652.90;;;274.20;;
31091;SDS011;67728;53.122;12.776;2023-12-20T00:30:51;656.45;;;277.38;;
31091;SDS011;67728;53.122;12.776;2023-12-20T00:32:21;655.60;;;282.65;;
31091;SDS011;67728;53.122;12.776;2023-12-20T00:33:53;663.22;;;283.80;;
31091;SDS011;67728;53.122;12.776;2023-12-20T00:35:24;650.65;;;272.10;;
31091;SDS011;67728;53.122;12.776;2023-12-20T00:36:57;651.13;;;269.73;;
31091;SDS011;67728;53.122;12.776;2023-12-20T00:38:28;651.53;;;271.70;;
31091;SDS011;67728;53.122;12.776;2023-12-20T00:39:59;650.88;;;265.33;;
31091;SDS011;67728;53.122;12.776;2023-12-20T00:41:30;652.20;;;277.23;;
31091;SDS011;67728;53.122;12.776;2023-12-20T00:43:02;650.50;;;267.17;;
31091;SDS011;67728;53.122;12.776;2023-12-20T00:44:33;650.40;;;270.40;;
31091;SDS011;67728;53.122;12.776;2023-12-20T00:46:05;649.42;;;266.30;;
31091;SDS011;67728;53.122;12.776;2023-12-20T00:47:35;650.72;;;263.80;;
31091;SDS011;67728;53.122;12.776;2023-12-20T00:49:07;655.28;;;275.33;;
31091;SDS011;67728;53.122;12.776;2023-12-20T00:50:38;647.08;;;267.23;;
31091;SDS011;67728;53.122;12.776;2023-12-20T00:52:11;646.90;;;263.02;;
31091;SDS011;67728;53.122;12.776;2023-12-20T00:53:41;643.28;;;248.57;;
31091;SDS011;67728;53.122;12.776;2023-12-20T00:55:13;651.42;;;273.65;;
31091;SDS011;67728;53.122;12.776;2023-12-20T00:56:44;648.05;;;257.80;;
31091;SDS011;67728;53.122;12.776;2023-12-20T00:58:15;645.35;;;253.25;;
31091;SDS011;67728;53.122;12.776;2023-12-20T00:59:47;650.25;;;249.77;;
31091;SDS011;67728;53.122;12.776;2023-12-20T01:01:19;654.33;;;246.30;;
31091;SDS011;67728;53.122;12.776;2023-12-20T01:02:49;643.05;;;241.77;;
31091;SDS011;67728;53.122;12.776;2023-12-20T01:04:21;642.47;;;239.85;;
31091;SDS011;67728;53.122;12.776;2023-12-20T01:05:52;649.22;;;242.48;;
31091;SDS011;67728;53.122;12.776;2023-12-20T01:07:25;643.35;;;241.50;;
31091;SDS011;67728;53.122;12.776;2023-12-20T01:08:55;645.00;;;247.45;;
31091;SDS011;67728;53.122;12.776;2023-12-20T01:10:27;644.70;;;246.65;;
31091;SDS011;67728;53.122;12.776;2023-12-20T01:11:59;642.28;;;239.73;;
31091;SDS011;67728;53.122;12.776;2023-12-20T01:13:31;644.60;;;244.23;;
31091;SDS011;67728;53.122;12.776;2023-12-20T01:15:01;643.13;;;240.35;;
31091;SDS011;67728;53.122;12.776;2023-12-20T01:16:33;648.53;;;255.45;;
31091;SDS011;67728;53.122;12.776;2023-12-20T01:18:05;651.85;;;269.50;;
31091;SDS011;67728;53.122;12.776;2023-12-20T01:19:35;650.75;;;266.65;;
31091;SDS011;67728;53.122;12.776;2023-12-20T01:21:07;652.13;;;266.80;;
31091;SDS011;67728;53.122;12.776;2023-12-20T01:22:39;653.88;;;259.35;;
31091;SDS011;67728;53.122;12.776;2023-12-20T01:24:12;653.87;;;272.53;;
31091;SDS011;67728;53.122;12.776;2023-12-20T01:25:43;648.70;;;261.80;;
31091;SDS011;67728;53.122;12.776;2023-12-20T01:27:15;650.45;;;264.73;;
31091;SDS011;67728;53.122;12.776;2023-12-20T01:28:45;649.42;;;264.10;;
31091;SDS011;67728;53.122;12.776;2023-12-20T01:30:17;647.40;;;257.30;;
31091;SDS011;67728;53.122;12.776;2023-12-20T01:31:47;656.33;;;268.43;;
31091;SDS011;67728;53.122;12.776;2023-12-20T01:33:19;645.75;;;249.15;;
31091;SDS011;67728;53.122;12.776;2023-12-20T01:34:50;644.22;;;248.05;;
31091;SDS011;67728;53.122;12.776;2023-12-20T01:36:21;650.25;;;265.15;;
31091;SDS011;67728;53.122;12.776;2023-12-20T01:37:53;648.20;;;261.77;;
31091;SDS011;67728;53.122;12.776;2023-12-20T01:39:26;644.88;;;254.90;;
31091;SDS011;67728;53.122;12.776;2023-12-20T01:40:57;650.67;;;263.38;;
31091;SDS011;67728;53.122;12.776;2023-12-20T01:42:29;648.38;;;255.93;;
31091;SDS011;67728;53.122;12.776;2023-12-20T01:43:59;661.05;;;255.40;;
31091;SDS011;67728;53.122;12.776;2023-12-20T01:45:31;648.25;;;253.88;;
31091;SDS011;67728;53.122;12.776;2023-12-20T01:47:02;646.38;;;247.77;;
31091;SDS011;67728;53.122;12.776;2023-12-20T01:48:33;642.50;;;243.30;;
31091;SDS011;67728;53.122;12.776;2023-12-20T01:50:05;645.08;;;248.95;;
31091;SDS011;67728;53.122;12.776;2023-12-20T01:51:38;649.00;;;244.48;;
31091;SDS011;67728;53.122;12.776;2023-12-20T01:53:10;642.20;;;236.52;;
31091;SDS011;67728;53.122;12.776;2023-12-20T01:54:43;645.80;;;246.38;;
31091;SDS011;67728;53.122;12.776;2023-12-20T01:56:14;643.33;;;241.38;;
31091;SDS011;67728;53.122;12.776;2023-12-20T01:57:47;644.33;;;246.60;;
31091;SDS011;67728;53.122;12.776;2023-12-20T01:59:17;644.35;;;237.85;;
31091;SDS011;67728;53.122;12.776;2023-12-20T02:00:51;643.40;;;240.10;;
31091;SDS011;67728;53.122;12.776;2023-12-20T02:02:22;644.15;;;241.30;;
31091;SDS011;67728;53.122;12.776;2023-12-20T02:03:54;652.65;;;243.90;;
31091;SDS011;67728;53.122;12.776;2023-12-20T02:05:25;650.55;;;251.55;;
31091;SDS011;67728;53.122;12.776;2023-12-20T02:06:57;642.67;;;241.63;;
31091;SDS011;67728;53.122;12.776;2023-12-20T02:08:30;645.30;;;242.98;;
31091;SDS011;67728;53.122;12.776;2023-12-20T02:10:02;646.50;;;247.98;;
31091;SDS011;67728;53.122;12.776;2023-12-20T02:11:34;642.70;;;238.85;;
31091;SDS011;67728;53.122;12.776;2023-12-20T02:13:07;645.20;;;241.02;;
31091;SDS011;67728;53.122;12.776;2023-12-20T02:14:38;642.85;;;237.27;;
31091;SDS011;67728;53.122;12.776;2023-12-20T02:16:09;645.33;;;239.45;;
31091;SDS011;67728;53.122;12.776;2023-12-20T02:17:41;641.50;;;233.55;;
31091;SDS011;67728;53.122;12.776;2023-12-20T02:19:13;645.72;;;241.60;;
31091;SDS011;67728;53.122;12.776;2023-12-20T02:20:45;649.28;;;252.35;;
31091;SDS011;67728;53.122;12.776;2023-12-20T02:22:18;647.65;;;247.55;;
31091;SDS011;67728;53.122;12.776;2023-12-20T02:23:49;642.10;;;229.50;;
31091;SDS011;67728;53.122;12.776;2023-12-20T02:25:20;642.88;;;233.98;;
31091;SDS011;67728;53.122;12.776;2023-12-20T02:26:51;650.08;;;239.75;;
31091;SDS011;67728;53.122;12.776;2023-12-20T02:28:23;642.20;;;233.18;;
31091;SDS011;67728;53.122;12.776;2023-12-20T02:29:54;640.78;;;229.30;;
31091;SDS011;67728;53.122;12.776;2023-12-20T02:31:25;645.05;;;243.77;;
31091;SDS011;67728;53.122;12.776;2023-12-20T02:32:56;647.55;;;240.73;;
31091;SDS011;67728;53.122;12.776;2023-12-20T02:34:29;644.75;;;226.27;;
31091;SDS011;67728;53.122;12.776;2023-12-20T02:36:00;643.65;;;236.10;;
31091;SDS011;67728;53.122;12.776;2023-12-20T02:37:33;641.85;;;233.57;;
31091;SDS011;67728;53.122;12.776;2023-12-20T02:39:04;645.47;;;243.30;;
31091;SDS011;67728;53.122;12.776;2023-12-20T02:40:36;643.80;;;230.65;;
31091;SDS011;67728;53.122;12.776;2023-12-20T02:42:06;642.05;;;230.63;;
31091;SDS011;67728;53.122;12.776;2023-12-20T02:43:38;649.50;;;235.15;;
31091;SDS011;67728;53.122;12.776;2023-12-20T02:45:09;642.38;;;230.32;;
31091;SDS011;67728;53.122;12.776;2023-12-20T02:46:40;642.53;;;231.70;;
31091;SDS011;67728;53.122;12.776;2023-12-20T02:48:11;640.78;;;226.30;;
31091;SDS011;67728;53.122;12.776;2023-12-20T02:49:42;654.70;;;223.38;;
31091;SDS011;67728;53.122;12.776;2023-12-20T02:51:13;640.67;;;224.60;;
31091;SDS011;67728;53.122;12.776;2023-12-20T02:52:46;644.67;;;221.05;;
31091;SDS011;67728;53.122;12.776;2023-12-20T02:54:17;640.55;;;224.88;;
31091;SDS011;67728;53.122;12.776;2023-12-20T02:55:48;640.65;;;229.13;;
31091;SDS011;67728;53.122;12.776;2023-12-20T02:57:19;640.83;;;223.48;;
31091;SDS011;67728;53.122;12.776;2023-12-20T02:58:50;638.75;;;223.32;;
31091;SDS011;67728;53.122;12.776;2023-12-20T03:00:21;644.00;;;222.65;;
31091;SDS011;67728;53.122;12.776;2023-12-20T03:01:53;648.58;;;253.20;;
31091;SDS011;67728;53.122;12.776;2023-12-20T03:03:23;649.35;;;253.82;;
31091;SDS011;67728;53.122;12.776;2023-12-20T03:04:55;645.08;;;243.88;;
31091;SDS011;67728;53.122;12.776;2023-12-20T03:06:25;646.03;;;245.23;;
31091;SDS011;67728;53.122;12.776;2023-12-20T03:07:58;644.50;;;234.30;;
31091;SDS011;67728;53.122;12.776;2023-12-20T03:09:30;644.42;;;235.73;;
31091;SDS011;67728;53.122;12.776;2023-12-20T03:11:00;641.55;;;230.57;;
31091;SDS011;67728;53.122;12.776;2023-12-20T03:12:32;643.15;;;236.07;;
31091;SDS011;67728;53.122;12.776;2023-12-20T03:14:03;651.22;;;237.95;;
31091;SDS011;67728;53.122;12.776;2023-12-20T03:15:34;641.00;;;232.93;;
31091;SDS011;67728;53.122;12.776;2023-12-20T03:17:07;653.50;;;234.10;;
31091;SDS011;67728;53.122;12.776;2023-12-20T03:18:37;643.80;;;233.52;;
31091;SDS011;67728;53.122;12.776;2023-12-20T03:20:09;638.72;;;226.80;;
31091;SDS011;67728;53.122;12.776;2023-12-20T03:21:40;640.53;;;233.77;;
31091;SDS011;67728;53.122;12.776;2023-12-20T03:23:13;641.72;;;227.82;;
31091;SDS011;67728;53.122;12.776;2023-12-20T03:24:43;641.27;;;228.90;;
31091;SDS011;67728;53.122;12.776;2023-12-20T03:26:15;643.35;;;222.75;;
31091;SDS011;67728;53.122;12.776;2023-12-20T03:27:46;639.08;;;215.65;;
31091;SDS011;67728;53.122;12.776;2023-12-20T03:29:17;638.28;;;217.55;;
31091;SDS011;67728;53.122;12.776;2023-12-20T03:30:49;642.10;;;226.23;;
31091;SDS011;67728;53.122;12.776;2023-12-20T03:32:19;639.88;;;219.50;;
31091;SDS011;67728;53.122;12.776;2023-12-20T03:33:51;643.33;;;214.88;;
31091;SDS011;67728;53.122;12.776;2023-12-20T03:35:23;638.78;;;217.25;;
31091;SDS011;67728;53.122;12.776;2023-12-20T03:36:55;640.08;;;219.05;;
31091;SDS011;67728;53.122;12.776;2023-12-20T03:38:27;641.40;;;223.43;;
31091;SDS011;67728;53.122;12.776;2023-12-20T03:39:59;636.70;;;211.10;;
31091;SDS011;67728;53.122;12.776;2023-12-20T03:41:30;634.53;;;212.80;;
31091;SDS011;67728;53.122;12.776;2023-12-20T03:43:01;635.67;;;209.03;;
31091;SDS011;67728;53.122;12.776;2023-12-20T03:44:32;635.10;;;206.65;;
31091;SDS011;67728;53.122;12.776;2023-12-20T03:46:03;639.87;;;220.77;;
31091;SDS011;67728;53.122;12.776;2023-12-20T03:47:34;635.50;;;213.40;;
31091;SDS011;67728;53.122;12.776;2023-12-20T03:49:06;637.50;;;211.63;;
31091;SDS011;67728;53.122;12.776;2023-12-20T03:50:36;637.80;;;210.38;;
31091;SDS011;67728;53.122;12.776;2023-12-20T03:52:08;643.30;;;216.53;;
31091;SDS011;67728;53.122;12.776;2023-12-20T03:53:40;638.50;;;215.93;;
31091;SDS011;67728;53.122;12.776;2023-12-20T03:55:11;635.10;;;212.43;;
31091;SDS011;67728;53.122;12.776;2023-12-20T03:56:42;635.88;;;208.48;;
31091;SDS011;67728;53.122;12.776;2023-12-20T03:58:14;638.25;;;215.98;;
31091;SDS011;67728;53.122;12.776;2023-12-20T03:59:44;636.57;;;218.43;;
31091;SDS011;67728;53.122;12.776;2023-12-20T04:01:17;636.97;;;218.97;;
31091;SDS011;67728;53.122;12.776;2023-12-20T04:02:47;637.13;;;210.68;;
31091;SDS011;67728;53.122;12.776;2023-12-20T04:04:19;644.07;;;220.73;;
31091;SDS011;67728;53.122;12.776;2023-12-20T04:05:50;642.08;;;217.75;;
31091;SDS011;67728;53.122;12.776;2023-12-20T04:07:21;650.53;;;228.68;;
31091;SDS011;67728;53.122;12.776;2023-12-20T04:08:54;640.23;;;219.70;;
31091;SDS011;67728;53.122;12.776;2023-12-20T04:10:25;641.93;;;224.93;;
31091;SDS011;67728;53.122;12.776;2023-12-20T04:11:56;641.73;;;228.90;;
31091;SDS011;67728;53.122;12.776;2023-12-20T04:13:27;640.95;;;219.98;;
31091;SDS011;67728;53.122;12.776;2023-12-20T04:14:59;646.08;;;241.15;;
31091;SDS011;67728;53.122;12.776;2023-12-20T04:16:29;647.25;;;243.27;;
31091;SDS011;67728;53.122;12.776;2023-12-20T04:18:01;644.75;;;236.73;;
31091;SDS011;67728;53.122;12.776;2023-12-20T04:19:31;642.80;;;230.17;;
31091;SDS011;67728;53.122;12.776;2023-12-20T04:21:03;639.40;;;222.02;;
31091;SDS011;67728;53.122;12.776;2023-12-20T04:22:34;641.53;;;222.47;;
31091;SDS011;67728;53.122;12.776;2023-12-20T04:24:07;648.80;;;223.85;;
31091;SDS011;67728;53.122;12.776;2023-12-20T04:25:38;641.63;;;226.30;;
31091;SDS011;67728;53.122;12.776;2023-12-20T04:27:10;641.78;;;222.38;;
31091;SDS011;67728;53.122;12.776;2023-12-20T04:28:40;641.60;;;226.87;;
31091;SDS011;67728;53.122;12.776;2023-12-20T04:30:13;640.97;;;226.93;;
31091;SDS011;67728;53.122;12.776;2023-12-20T04:31:43;644.50;;;225.00;;
31091;SDS011;67728;53.122;12.776;2023-12-20T04:33:15;639.73;;;218.37;;
31091;SDS011;67728;53.122;12.776;2023-12-20T04:34:45;640.95;;;218.80;;
31091;SDS011;67728;53.122;12.776;2023-12-20T04:36:17;640.40;;;214.03;;
31091;SDS011;67728;53.122;12.776;2023-12-20T04:37:49;642.55;;;217.70;;
31091;SDS011;67728;53.122;12.776;2023-12-20T04:39:21;644.17;;;216.23;;
31091;SDS011;67728;53.122;12.776;2023-12-20T04:40:52;642.63;;;216.37;;
31091;SDS011;67728;53.122;12.776;2023-12-20T04:42:23;640.00;;;211.60;;
31091;SDS011;67728;53.122;12.776;2023-12-20T04:43:55;643.65;;;206.48;;
31091;SDS011;67728;53.122;12.776;2023-12-20T04:45:25;639.88;;;214.90;;
31091;SDS011;67728;53.122;12.776;2023-12-20T04:46:57;639.40;;;213.00;;
31091;SDS011;67728;53.122;12.776;2023-12-20T04:48:28;640.15;;;215.63;;
31091;SDS011;67728;53.122;12.776;2023-12-20T04:49:59;641.22;;;217.80;;
31091;SDS011;67728;53.122;12.776;2023-12-20T04:51:32;639.95;;;214.48;;
31091;SDS011;67728;53.122;12.776;2023-12-20T04:53:04;638.28;;;209.18;;
31091;SDS011;67728;53.122;12.776;2023-12-20T04:54:36;640.33;;;214.40;;
31091;SDS011;67728;53.122;12.776;2023-12-20T04:56:08;639.93;;;211.17;;
31091;SDS011;67728;53.122;12.776;2023-12-20T04:57:38;657.53;;;217.75;;
31091;SDS011;67728;53.122;12.776;2023-12-20T04:59:10;638.17;;;206.48;;
31091;SDS011;67728;53.122;12.776;2023-12-20T05:00:40;640.50;;;216.97;;
31091;SDS011;67728;53.122;12.776;2023-12-20T05:02:12;644.17;;;229.15;;
31091;SDS011;67728;53.122;12.776;2023-12-20T05:03:43;643.25;;;228.10;;
31091;SDS011;67728;53.122;12.776;2023-12-20T05:05:14;643.80;;;227.45;;
31091;SDS011;67728;53.122;12.776;2023-12-20T05:06:47;638.35;;;206.88;;
31091;SDS011;67728;53.122;12.776;2023-12-20T05:08:19;636.25;;;201.15;;
31091;SDS011;67728;53.122;12.776;2023-12-20T05:09:51;647.10;;;242.70;;
31091;SDS011;67728;53.122;12.776;2023-12-20T05:11:23;647.67;;;230.33;;
31091;SDS011;67728;53.122;12.776;2023-12-20T05:12:54;648.60;;;243.40;;
31091;SDS011;67728;53.122;12.776;2023-12-20T05:14:25;647.65;;;237.43;;
31091;SDS011;67728;53.122;12.776;2023-12-20T05:15:56;652.03;;;238.18;;
31091;SDS011;67728;53.122;12.776;2023-12-20T05:17:28;647.97;;;238.57;;
31091;SDS011;67728;53.122;12.776;2023-12-20T05:18:58;645.50;;;234.60;;
31091;SDS011;67728;53.122;12.776;2023-12-20T05:20:32;646.40;;;234.53;;
31091;SDS011;67728;53.122;12.776;2023-12-20T05:22:03;645.23;;;234.30;;
31091;SDS011;67728;53.122;12.776;2023-12-20T05:23:34;644.13;;;226.00;;
31091;SDS011;67728;53.122;12.776;2023-12-20T05:25:07;647.57;;;234.03;;
31091;SDS011;67728;53.122;12.776;2023-12-20T05:26:38;643.50;;;230.57;;
31091;SDS011;67728;53.122;12.776;2023-12-20T05:28:09;647.40;;;238.47;;
31091;SDS011;67728;53.122;12.776;2023-12-20T05:29:40;661.67;;;233.27;;
31091;SDS011;67728;53.122;12.776;2023-12-20T05:31:12;646.55;;;239.95;;
31091;SDS011;67728;53.122;12.776;2023-12-20T05:32:42;657.40;;;238.57;;
31091;SDS011;67728;53.122;12.776;2023-12-20T05:34:14;645.57;;;239.17;;
31091;SDS011;67728;53.122;12.776;2023-12-20T05:35:44;648.47;;;242.97;;
31091;SDS011;67728;53.122;12.776;2023-12-20T05:37:16;647.33;;;234.03;;
31091;SDS011;67728;53.122;12.776;2023-12-20T05:38:47;648.53;;;239.40;;
31091;SDS011;67728;53.122;12.776;2023-12-20T05:40:19;645.80;;;236.07;;
31091;SDS011;67728;53.122;12.776;2023-12-20T05:41:50;647.50;;;241.00;;
31091;SDS011;67728;53.122;12.776;2023-12-20T05:43:22;647.45;;;241.50;;
31091;SDS011;67728;53.122;12.776;2023-12-20T05:44:53;646.87;;;239.33;;
31091;SDS011;67728;53.122;12.776;2023-12-20T05:46:24;645.97;;;238.93;;
31091;SDS011;67728;53.122;12.776;2023-12-20T05:47:55;662.83;;;242.70;;
31091;SDS011;67728;53.122;12.776;2023-12-20T05:49:27;645.83;;;237.87;;
31091;SDS011;67728;53.122;12.776;2023-12-20T05:50:57;648.45;;;235.77;;
31091;SDS011;67728;53.122;12.776;2023-12-20T05:52:29;644.07;;;228.37;;
31091;SDS011;67728;53.122;12.776;2023-12-20T05:53:59;649.38;;;227.07;;
31091;SDS011;67728;53.122;12.776;2023-12-20T05:55:32;643.05;;;222.38;;
31091;SDS011;67728;53.122;12.776;2023-12-20T05:57:03;638.17;;;215.60;;
31091;SDS011;67728;53.122;12.776;2023-12-20T05:58:35;652.77;;;221.90;;
31091;SDS011;67728;53.122;12.776;2023-12-20T06:00:07;638.72;;;211.40;;
31091;SDS011;67728;53.122;12.776;2023-12-20T06:01:39;645.72;;;216.95;;
31091;SDS011;67728;53.122;12.776;2023-12-20T06:03:10;640.23;;;209.00;;
31091;SDS011;67728;53.122;12.776;2023-12-20T06:04:42;641.43;;;213.27;;
31091;SDS011;67728;53.122;12.776;2023-12-20T06:06:13;647.42;;;243.23;;
31091;SDS011;67728;53.122;12.776;2023-12-20T06:07:45;657.30;;;245.23;;
31091;SDS011;67728;53.122;12.776;2023-12-20T06:09:18;647.43;;;240.47;;
31091;SDS011;67728;53.122;12.776;2023-12-20T06:10:51;657.13;;;247.93;;
31091;SDS011;67728;53.122;12.776;2023-12-20T06:12:21;646.13;;;239.33;;
31091;SDS011;67728;53.122;12.776;2023-12-20T06:13:53;655.97;;;226.32;;
31091;SDS011;67728;53.122;12.776;2023-12-20T06:15:24;647.33;;;236.43;;
31091;SDS011;67728;53.122;12.776;2023-12-20T06:16:55;639.27;;;213.17;;
31091;SDS011;67728;53.122;12.776;2023-12-20T06:18:26;642.03;;;222.13;;
31091;SDS011;67728;53.122;12.776;2023-12-20T06:19:57;639.90;;;216.57;;
31091;SDS011;67728;53.122;12.776;2023-12-20T06:21:29;643.13;;;231.15;;
31091;SDS011;67728;53.122;12.776;2023-12-20T06:23:00;648.53;;;238.18;;
31091;SDS011;67728;53.122;12.776;2023-12-20T06:24:32;645.23;;;240.40;;
31091;SDS011;67728;53.122;12.776;2023-12-20T06:26:05;646.30;;;235.77;;
31091;SDS011;67728;53.122;12.776;2023-12-20T06:27:37;644.53;;;231.67;;
31091;SDS011;67728;53.122;12.776;2023-12-20T06:29:07;647.00;;;237.33;;
31091;SDS011;67728;53.122;12.776;2023-12-20T06:30:39;649.00;;;243.83;;
31091;SDS011;67728;53.122;12.776;2023-12-20T06:32:09;652.97;;;240.87;;
31091;SDS011;67728;53.122;12.776;2023-12-20T06:33:42;644.87;;;233.03;;
31091;SDS011;67728;53.122;12.776;2023-12-20T06:35:13;645.43;;;236.83;;
31091;SDS011;67728;53.122;12.776;2023-12-20T06:36:45;645.30;;;237.03;;
31091;SDS011;67728;53.122;12.776;2023-12-20T06:38:18;644.63;;;236.83;;
31091;SDS011;67728;53.122;12.776;2023-12-20T06:39:50;646.37;;;234.97;;
31091;SDS011;67728;53.122;12.776;2023-12-20T06:41:22;643.33;;;228.77;;
31091;SDS011;67728;53.122;12.776;2023-12-20T06:42:54;641.40;;;226.33;;
31091;SDS011;67728;53.122;12.776;2023-12-20T06:44:25;650.80;;;226.70;;
31091;SDS011;67728;53.122;12.776;2023-12-20T06:45:56;643.27;;;224.90;;
31091;SDS011;67728;53.122;12.776;2023-12-20T06:47:27;643.70;;;222.33;;
31091;SDS011;67728;53.122;12.776;2023-12-20T06:48:58;648.57;;;228.03;;
31091;SDS011;67728;53.122;12.776;2023-12-20T06:50:29;642.23;;;222.37;;
31091;SDS011;67728;53.122;12.776;2023-12-20T06:52:01;647.23;;;226.83;;
31091;SDS011;67728;53.122;12.776;2023-12-20T06:53:32;650.90;;;234.03;;
31091;SDS011;67728;53.122;12.776;2023-12-20T06:55:04;645.70;;;239.60;;
31091;SDS011;67728;53.122;12.776;2023-12-20T06:56:36;644.60;;;218.27;;
31091;SDS011;67728;53.122;12.776;2023-12-20T06:58:08;648.47;;;222.67;;
31091;SDS011;67728;53.122;12.776;2023-12-20T06:59:39;641.42;;;226.23;;
31091;SDS011;67728;53.122;12.776;2023-12-20T07:01:11;644.87;;;223.50;;
31091;SDS011;67728;53.122;12.776;2023-12-20T07:02:42;643.33;;;226.02;;
31091;SDS011;67728;53.122;12.776;2023-12-20T07:04:15;643.23;;;221.33;;
31091;SDS011;67728;53.122;12.776;2023-12-20T07:05:46;639.75;;;213.00;;
31091;SDS011;67728;53.122;12.776;2023-12-20T07:07:18;641.70;;;220.07;;
31091;SDS011;67728;53.122;12.776;2023-12-20T07:08:50;644.03;;;223.17;;
31091;SDS011;67728;53.122;12.776;2023-12-20T07:10:20;639.77;;;218.43;;
31091;SDS011;67728;53.122;12.776;2023-12-20T07:11:53;641.67;;;221.13;;
31091;SDS011;67728;53.122;12.776;2023-12-20T07:13:24;639.20;;;216.47;;
31091;SDS011;67728;53.122;12.776;2023-12-20T07:14:56;639.80;;;209.33;;
31091;SDS011;67728;53.122;12.776;2023-12-20T07:16:26;642.43;;;215.33;;
31091;SDS011;67728;53.122;12.776;2023-12-20T07:17:58;638.30;;;206.70;;
31091;SDS011;67728;53.122;12.776;2023-12-20T07:19:30;638.40;;;207.40;;
31091;SDS011;67728;53.122;12.776;2023-12-20T07:21:02;638.88;;;208.82;;
31091;SDS011;67728;53.122;12.776;2023-12-20T07:22:33;642.40;;;219.23;;
31091;SDS011;67728;53.122;12.776;2023-12-20T07:24:05;648.00;;;212.13;;
31091;SDS011;67728;53.122;12.776;2023-12-20T07:25:36;643.00;;;220.17;;
31091;SDS011;67728;53.122;12.776;2023-12-20T07:27:09;638.83;;;208.17;;
31091;SDS011;67728;53.122;12.776;2023-12-20T07:28:39;636.85;;;207.10;;
31091;SDS011;67728;53.122;12.776;2023-12-20T07:30:11;642.43;;;215.83;;
31091;SDS011;67728;53.122;12.776;2023-12-20T07:31:42;663.00;;;215.13;;
31091;SDS011;67728;53.122;12.776;2023-12-20T07:33:14;637.13;;;195.80;;
31091;SDS011;67728;53.122;12.776;2023-12-20T07:34:45;641.97;;;214.77;;
31091;SDS011;67728;53.122;12.776;2023-12-20T07:36:16;648.43;;;242.50;;
31091;SDS011;67728;53.122;12.776;2023-12-20T07:37:47;642.47;;;216.70;;
31091;SDS011;67728;53.122;12.776;2023-12-20T07:39:19;647.35;;;223.00;;
31091;SDS011;67728;53.122;12.776;2023-12-20T07:40:49;648.40;;;236.17;;
31091;SDS011;67728;53.122;12.776;2023-12-20T07:42:22;660.43;;;216.23;;
31091;SDS011;67728;53.122;12.776;2023-12-20T07:43:53;646.07;;;204.97;;
31091;SDS011;67728;53.122;12.776;2023-12-20T07:45:24;671.97;;;218.80;;
31091;SDS011;67728;53.122;12.776;2023-12-20T07:46:55;685.43;;;240.23;;
31091;SDS011;67728;53.122;12.776;2023-12-20T07:48:27;662.87;;;241.10;;
31091;SDS011;67728;53.122;12.776;2023-12-20T07:49:58;650.65;;;244.68;;
31091;SDS011;67728;53.122;12.776;2023-12-20T07:51:30;641.27;;;208.60;;
31091;SDS011;67728;53.122;12.776;2023-12-20T07:53:01;649.83;;;227.63;;
31091;SDS011;67728;53.122;12.776;2023-12-20T07:54:33;643.50;;;220.77;;
31091;SDS011;67728;53.122;12.776;2023-12-20T07:56:13;653.80;;;229.00;;
31091;SDS011;67728;53.122;12.776;2023-12-20T07:57:46;671.33;;;224.50;;
31091;SDS011;67728;53.122;12.776;2023-12-20T07:59:17;644.73;;;222.97;;
31091;SDS011;67728;53.122;12.776;2023-12-20T08:00:48;677.90;;;245.27;;
31091;SDS011;67728;53.122;12.776;2023-12-20T08:02:20;652.60;;;224.83;;
31091;SDS011;67728;53.122;12.776;2023-12-20T08:03:51;667.00;;;245.17;;
31091;SDS011;67728;53.122;12.776;2023-12-20T08:05:23;654.17;;;228.47;;
31091;SDS011;67728;53.122;12.776;2023-12-20T08:06:53;653.53;;;228.10;;
31091;SDS011;67728;53.122;12.776;2023-12-20T08:08:25;651.67;;;247.03;;
31091;SDS011;67728;53.122;12.776;2023-12-20T08:09:56;666.63;;;229.67;;
31091;SDS011;67728;53.122;12.776;2023-12-20T08:11:28;660.07;;;240.13;;
31091;SDS011;67728;53.122;12.776;2023-12-20T08:13:00;652.40;;;239.20;;
31091;SDS011;67728;53.122;12.776;2023-12-20T08:14:31;650.92;;;228.63;;
31091;SDS011;67728;53.122;12.776;2023-12-20T08:16:02;650.13;;;234.75;;
31091;SDS011;67728;53.122;12.776;2023-12-20T08:17:34;648.75;;;242.05;;
31091;SDS011;67728;53.122;12.776;2023-12-20T08:19:05;649.55;;;227.32;;
31091;SDS011;67728;53.122;12.776;2023-12-20T08:20:36;647.53;;;230.43;;
31091;SDS011;67728;53.122;12.776;2023-12-20T08:22:07;650.45;;;233.25;;
31091;SDS011;67728;53.122;12.776;2023-12-20T08:23:39;646.75;;;231.32;;
31091;SDS011;67728;53.122;12.776;2023-12-20T08:25:10;660.60;;;249.13;;
31091;SDS011;67728;53.122;12.776;2023-12-20T08:26:41;644.00;;;224.95;;
31091;SDS011;67728;53.122;12.776;2023-12-20T08:28:13;650.55;;;243.77;;
31091;SDS011;67728;53.122;12.776;2023-12-20T08:29:45;645.17;;;223.77;;
31091;SDS011;67728;53.122;12.776;2023-12-20T08:31:16;645.35;;;229.63;;